Time;durP1;ratioP1;P1;durP2;ratioP2;P2;SDS_P1;SDS_P2;PMS_P1;PMS_P2;Temp;Humidity;BMP_temperature;BMP_pressure;BME280_temperature;BME280_humidity;BME280_pressure;Samples;Min_cycle;Max_cycle;Signal;HPM_P1;HPM_P2
2022/10/04 01:22:46;;;;;;;;;;;16.50;99.90;;;;;;4966724;28;19941;-79
2022/10/04 03:08:40;;;;;;;;;;;;;;;;;;;;;
2022/10/04 03:45:25;;;;;;;;;;;16.50;99.90;;;;;;5005995;28;19929;-80
2022/10/04 04:54:07;;;;;;;;;;;16.30;99.90;;;;;;4953610;28;20256;-79
2022/10/04 05:03:29;;;;;;;;;;;16.30;99.90;;;;;;4943483;29;19915;-80
2022/10/04 05:06:32;;;;;;;;;;;16.30;99.90;;;;;;4941554;29;19965;-78
2022/10/04 05:19:20;;;;;;;;;;;;;;;;;;;;;
2022/10/04 05:55:58;;;;;;;;;;;16.40;99.90;;;;;;4888552;29;19994;-80
2022/10/04 05:59:27;;;;;;;;;;;16.40;99.90;;;;;;4892522;29;20411;-80
2022/10/04 06:07:58;;;;;;;;;;;16.50;99.90;;;;;;4906256;29;19916;-79
2022/10/04 06:23:05;;;;;;;;;;;16.80;99.90;;;;;;4889028;29;19967;-80
2022/10/04 06:25:40;;;;;;;;;;;16.90;99.90;;;;;;4908765;29;19919;-79
2022/10/04 06:28:23;;;;;;;;;;;17.00;99.90;;;;;;4981041;28;19914;-80
2022/10/04 06:30:58;;;;;;;;;;;17.20;99.90;;;;;;5079248;28;19917;-79
2022/10/04 06:33:24;;;;;;;;;;;17.30;99.90;;;;;;5087561;28;19963;-80
2022/10/04 06:39:24;;;;;;;;;;;17.40;99.90;;;;;;5086540;28;20107;-79
2022/10/04 06:41:52;;;;;;;;;;;17.50;99.90;;;;;;5088181;28;19939;-79
2022/10/04 06:45:13;;;;;;;;;;;17.40;99.90;;;;;;5086302;28;20291;-80
2022/10/04 06:57:46;;;;;;;;;;;17.40;99.90;;;;;;5005650;28;19928;-79
2022/10/04 07:06:52;;;;;;;;;;;17.70;99.90;;;;;;5005789;28;19929;-79
2022/10/04 07:09:57;;;;;;;;;;;17.80;99.90;;;;;;4987003;28;19914;-80
2022/10/04 07:12:22;;;;;;;;;;;17.90;99.90;;;;;;5015838;28;19932;-72
2022/10/04 07:14:51;;;;;;;;;;;18.10;99.90;;;;;;5065995;28;19917;-73
2022/10/04 07:17:26;;;;;;;;;;;18.10;99.90;;;;;;5075782;28;19912;-73
2022/10/04 07:19:53;;;;;;;;;;;18.30;99.90;;;;;;5074183;28;19926;-71
2022/10/04 07:22:32;;;;;;;;;;;18.30;99.90;;;;;;5074721;28;20385;-75
2022/10/04 07:25:10;;;;;;;;;;;18.50;99.90;;;;;;5073947;28;19924;-72
2022/10/04 07:31:00;;;;;;;;;;;18.60;99.90;;;;;;5071528;28;19920;-72
2022/10/04 07:33:27;;;;;;;;;;;18.60;99.90;;;;;;5068588;28;20359;-72
2022/10/04 07:35:59;;;;;;;;;;;18.60;99.90;;;;;;5072493;28;20285;-72
2022/10/04 07:38:26;;;;;;;;;;;18.80;99.90;;;;;;5074775;28;19913;-72
2022/10/04 07:41:07;;;;;;;;;;;19.00;99.90;;;;;;5074914;28;19912;-72
2022/10/04 07:43:48;;;;;;;;;;;19.10;99.90;;;;;;5072463;28;19912;-73
2022/10/04 07:46:17;;;;;;;;;;;19.20;99.90;;;;;;5073107;28;19913;-72
2022/10/04 07:48:43;;;;;;;;;;;19.40;99.90;;;;;;5073856;28;19980;-72
2022/10/04 07:51:20;;;;;;;;;;;19.40;99.90;;;;;;5071118;28;19959;-73
2022/10/04 07:53:50;;;;;;;;;;;19.50;99.90;;;;;;5073321;28;19917;-73
2022/10/04 07:56:19;;;;;;;;;;;19.80;99.90;;;;;;5071533;28;20305;-72
2022/10/04 07:58:50;;;;;;;;;;;19.90;99.90;;;;;;5087516;28;19920;-73
2022/10/04 08:01:35;;;;;;;;;;;20.10;99.90;;;;;;5074897;28;20302;-72
2022/10/04 08:04:21;;;;;;;;;;;20.30;99.90;;;;;;5069497;28;20266;-73
2022/10/04 08:06:48;;;;;;;;;;;20.30;99.90;;;;;;5080898;28;19916;-75
2022/10/04 08:09:32;;;;;;;;;;;20.40;99.90;;;;;;5080214;28;19913;-72
2022/10/04 08:12:04;;;;;;;;;;;20.50;99.90;;;;;;5058175;28;19908;-72
2022/10/04 08:14:29;;;;;;;;;;;20.40;99.90;;;;;;5059144;28;19936;-72
2022/10/04 08:17:07;;;;;;;;;;;20.20;99.90;;;;;;5058753;28;19997;-72
2022/10/04 08:19:34;;;;;;;;;;;20.20;99.90;;;;;;5055796;28;20290;-72
2022/10/04 08:22:02;;;;;;;;;;;20.10;99.90;;;;;;5073275;28;19973;-72
2022/10/04 08:24:34;;;;;;;;;;;20.30;99.90;;;;;;5073602;28;19920;-72
2022/10/04 08:27:00;;;;;;;;;;;20.30;99.90;;;;;;5073246;28;19959;-73
2022/10/04 08:29:44;;;;;;;;;;;20.50;99.90;;;;;;5073027;28;19920;-72
2022/10/04 08:32:23;;;;;;;;;;;20.70;99.90;;;;;;5072392;28;19912;-74
2022/10/04 08:35:15;;;;;;;;;;;20.70;99.90;;;;;;5072925;28;19975;-73
2022/10/04 08:37:59;;;;;;;;;;;20.50;99.90;;;;;;5049752;28;19912;-72
2022/10/04 08:40:25;;;;;;;;;;;20.50;99.90;;;;;;5073306;28;19913;-74
2022/10/04 08:43:21;;;;;;;;;;;20.40;99.90;;;;;;5073707;28;19949;-72
2022/10/04 08:46:07;;;;;;;;;;;20.40;99.90;;;;;;5072679;28;19976;-73
2022/10/04 08:48:37;;;;;;;;;;;20.50;99.90;;;;;;5071564;28;20324;-72
2022/10/04 08:51:21;;;;;;;;;;;20.70;99.90;;;;;;5071885;28;19913;-73
2022/10/04 08:53:47;;;;;;;;;;;20.90;99.90;;;;;;5077996;28;19917;-72
2022/10/04 08:56:32;;;;;;;;;;;21.20;99.90;;;;;;5068672;28;19946;-72
2022/10/04 08:59:09;;;;;;;;;;;21.50;99.90;;;;;;5055541;28;19913;-72
2022/10/04 09:01:45;;;;;;;;;;;21.60;99.90;;;;;;5074541;28;19912;-72
2022/10/04 09:04:20;;;;;;;;;;;21.70;99.90;;;;;;5073858;28;19916;-72
2022/10/04 09:07:08;;;;;;;;;;;21.90;99.90;;;;;;5072717;28;19917;-72
2022/10/04 09:09:41;;;;;;;;;;;21.80;99.90;;;;;;5074713;28;19916;-72
2022/10/04 09:12:26;;;;;;;;;;;21.80;99.90;;;;;;5063277;28;19989;-72
2022/10/04 09:14:55;;;;;;;;;;;21.80;99.90;;;;;;5078316;28;19923;-73
2022/10/04 09:17:34;;;;;;;;;;;21.90;99.90;;;;;;5070766;28;19995;-73
2022/10/04 09:20:00;;;;;;;;;;;22.20;99.90;;;;;;5054505;28;19915;-72
2022/10/04 09:22:58;;;;;;;;;;;22.50;99.90;;;;;;5070717;28;19912;-73
2022/10/04 09:25:42;;;;;;;;;;;22.50;99.90;;;;;;5058565;28;19915;-73
2022/10/04 09:28:23;;;;;;;;;;;22.00;99.90;;;;;;5079223;28;19962;-73
2022/10/04 09:31:07;;;;;;;;;;;21.80;99.90;;;;;;5072615;28;19923;-73
2022/10/04 09:33:33;;;;;;;;;;;21.70;99.90;;;;;;5066976;28;19970;-74
2022/10/04 09:36:24;;;;;;;;;;;21.80;99.90;;;;;;5071142;28;20270;-73
2022/10/04 09:39:09;;;;;;;;;;;22.00;99.90;;;;;;5047600;28;20007;-73
2022/10/04 09:41:34;;;;;;;;;;;22.20;99.90;;;;;;5055399;28;19965;-73
2022/10/04 09:44:18;;;;;;;;;;;22.50;99.90;;;;;;5071841;28;19920;-73
2022/10/04 09:47:03;;;;;;;;;;;22.60;99.90;;;;;;5071480;28;20000;-73
2022/10/04 09:49:38;;;;;;;;;;;22.70;99.90;;;;;;5067374;28;19918;-74
2022/10/04 09:52:14;;;;;;;;;;;22.80;99.90;;;;;;5070881;28;19921;-73
2022/10/04 09:55:03;;;;;;;;;;;22.50;99.90;;;;;;5072071;28;19927;-74
2022/10/04 09:57:40;;;;;;;;;;;22.40;99.90;;;;;;5070955;28;19916;-74
2022/10/04 10:00:09;;;;;;;;;;;22.20;99.90;;;;;;5058697;28;19919;-74
2022/10/04 10:02:53;;;;;;;;;;;22.20;99.90;;;;;;5072530;28;19912;-74
2022/10/04 10:05:34;;;;;;;;;;;22.30;99.90;;;;;;5061056;28;19923;-75
2022/10/04 10:08:20;;;;;;;;;;;22.50;99.90;;;;;;5064091;28;19908;-74
2022/10/04 10:14:20;;;;;;;;;;;22.40;99.90;;;;;;5014858;28;19960;-74
2022/10/04 10:17:05;;;;;;;;;;;22.30;99.90;;;;;;4991234;28;19921;-75
2022/10/04 10:19:43;;;;;;;;;;;22.50;99.90;;;;;;5040294;28;20150;-78
2022/10/04 10:22:18;;;;;;;;;;;22.60;99.90;;;;;;5072435;28;19959;-74
2022/10/04 10:24:54;;;;;;;;;;;22.50;99.90;;;;;;5072422;28;19913;-75
2022/10/04 10:27:32;;;;;;;;;;;22.60;99.90;;;;;;5050175;28;20039;-74
2022/10/04 10:30:02;;;;;;;;;;;22.60;99.90;;;;;;5072568;28;19909;-74
2022/10/04 10:32:47;;;;;;;;;;;22.50;99.90;;;;;;5051245;28;19966;-75
2022/10/04 10:35:31;;;;;;;;;;;22.60;99.90;;;;;;5064970;28;19912;-75
2022/10/04 10:38:15;;;;;;;;;;;22.70;99.90;;;;;;5068266;28;19912;-75
2022/10/04 10:41:00;;;;;;;;;;;22.90;99.90;;;;;;5068945;28;19909;-74
2022/10/04 10:43:25;;;;;;;;;;;22.80;99.90;;;;;;5072770;28;19908;-75
2022/10/04 10:45:51;;;;;;;;;;;22.50;99.90;;;;;;5054550;28;19931;-74
2022/10/04 10:48:18;;;;;;;;;;;22.40;99.90;;;;;;5065960;28;19916;-75
2022/10/04 10:51:02;;;;;;;;;;;22.40;99.90;;;;;;5073213;28;20007;-74
2022/10/04 10:53:53;;;;;;;;;;;22.30;99.90;;;;;;5072452;28;19913;-74
2022/10/04 10:56:37;;;;;;;;;;;22.40;99.90;;;;;;5066255;28;19913;-74
2022/10/04 10:59:23;;;;;;;;;;;22.50;99.90;;;;;;5072561;28;19928;-74
2022/10/04 11:02:08;;;;;;;;;;;22.60;99.90;;;;;;5049887;28;19912;-74
2022/10/04 11:04:53;;;;;;;;;;;22.60;99.90;;;;;;5073057;28;20348;-75
2022/10/04 11:07:38;;;;;;;;;;;22.60;99.90;;;;;;5065319;28;19916;-74
2022/10/04 11:10:25;;;;;;;;;;;22.60;99.90;;;;;;5073170;28;20346;-74
2022/10/04 11:13:09;;;;;;;;;;;22.50;99.90;;;;;;5073967;28;20023;-74
2022/10/04 11:15:47;;;;;;;;;;;22.50;99.90;;;;;;5071838;28;19916;-74
2022/10/04 11:18:14;;;;;;;;;;;22.40;99.90;;;;;;5074127;28;20080;-74
2022/10/04 11:20:46;;;;;;;;;;;22.20;99.90;;;;;;5076607;28;19916;-74
2022/10/04 11:23:11;;;;;;;;;;;22.20;99.90;;;;;;5075888;28;19920;-73
2022/10/04 11:26:00;;;;;;;;;;;22.10;99.90;;;;;;5056433;28;20372;-76
2022/10/04 11:28:45;;;;;;;;;;;22.00;99.90;;;;;;5071758;28;19912;-73
2022/10/04 11:31:39;;;;;;;;;;;21.80;99.90;;;;;;5075165;28;19912;-73
2022/10/04 11:34:24;;;;;;;;;;;21.70;99.90;;;;;;5074681;28;20437;-74
2022/10/04 11:36:55;;;;;;;;;;;21.80;99.90;;;;;;5073770;28;19912;-74
2022/10/04 11:39:40;;;;;;;;;;;22.10;99.90;;;;;;5075555;28;19913;-75
2022/10/04 11:42:12;;;;;;;;;;;22.30;99.90;;;;;;5075272;28;19913;-73
2022/10/04 11:45:05;;;;;;;;;;;22.10;99.90;;;;;;5053888;28;20257;-74
2022/10/04 11:47:38;;;;;;;;;;;22.10;99.90;;;;;;5068377;28;20389;-75
2022/10/04 11:50:22;;;;;;;;;;;22.20;99.90;;;;;;5075390;28;19966;-76
2022/10/04 11:52:56;;;;;;;;;;;22.40;99.90;;;;;;5071424;28;19913;-77
2022/10/04 11:55:41;;;;;;;;;;;22.40;99.90;;;;;;5069881;28;20007;-76
2022/10/04 11:58:15;;;;;;;;;;;22.50;99.90;;;;;;5068465;28;19927;-76
2022/10/04 12:01:00;;;;;;;;;;;22.40;99.90;;;;;;5071721;28;19917;-79
2022/10/04 12:03:32;;;;;;;;;;;22.30;99.90;;;;;;5071095;28;19913;-76
2022/10/04 12:06:26;;;;;;;;;;;22.20;99.90;;;;;;5072381;28;19924;-77
2022/10/04 12:09:03;;;;;;;;;;;22.30;99.90;;;;;;5072023;28;19951;-76
2022/10/04 12:14:49;;;;;;;;;;;22.10;99.90;;;;;;5068716;28;20017;-76
2022/10/04 12:17:18;;;;;;;;;;;22.10;99.90;;;;;;5068941;28;19946;-76
2022/10/04 12:19:51;;;;;;;;;;;22.00;99.90;;;;;;5058257;28;19951;-76
2022/10/04 12:22:25;;;;;;;;;;;21.90;99.90;;;;;;5071538;28;19920;-76
2022/10/04 12:25:04;;;;;;;;;;;21.80;99.90;;;;;;5072737;28;19912;-76
2022/10/04 12:27:37;;;;;;;;;;;21.80;99.90;;;;;;5075346;28;19973;-76
2022/10/04 12:30:15;;;;;;;;;;;21.80;99.90;;;;;;5073229;28;19912;-76
2022/10/04 12:32:48;;;;;;;;;;;21.70;99.90;;;;;;5073784;28;19919;-76
2022/10/04 12:35:21;;;;;;;;;;;21.80;99.90;;;;;;5072447;28;20035;-76
2022/10/04 12:38:06;;;;;;;;;;;21.80;99.90;;;;;;5074900;28;19919;-75
2022/10/04 12:41:01;;;;;;;;;;;21.80;99.90;;;;;;5070521;28;19909;-76
2022/10/04 12:43:45;;;;;;;;;;;21.80;99.90;;;;;;5018879;28;19913;-76
2022/10/04 12:46:11;;;;;;;;;;;21.70;99.90;;;;;;5074077;28;19919;-76
2022/10/04 12:48:57;;;;;;;;;;;21.60;99.90;;;;;;5056322;28;19952;-76
2022/10/04 12:51:41;;;;;;;;;;;21.60;99.90;;;;;;5065042;28;19973;-76
2022/10/04 12:54:07;;;;;;;;;;;21.60;99.90;;;;;;5068380;28;19927;-76
2022/10/04 12:56:39;;;;;;;;;;;21.70;99.90;;;;;;5058157;28;19912;-76
2022/10/04 12:59:26;;;;;;;;;;;21.80;99.90;;;;;;5068374;28;19916;-76
2022/10/04 13:01:51;;;;;;;;;;;21.80;99.90;;;;;;5072044;28;19924;-76
2022/10/04 13:04:28;;;;;;;;;;;21.90;99.90;;;;;;5058225;28;19969;-75
2022/10/04 13:07:17;;;;;;;;;;;21.90;99.90;;;;;;5073895;28;19916;-76
2022/10/04 13:09:43;;;;;;;;;;;21.90;99.90;;;;;;5069350;28;19916;-77
2022/10/04 13:12:30;;;;;;;;;;;22.10;99.90;;;;;;5070182;28;20014;-76
2022/10/04 13:15:14;;;;;;;;;;;22.10;99.90;;;;;;5073512;28;19916;-76
2022/10/04 13:17:40;;;;;;;;;;;22.00;99.90;;;;;;5085949;28;19912;-79
2022/10/04 13:20:05;;;;;;;;;;;21.90;99.90;;;;;;5088690;28;19919;-76
2022/10/04 13:22:38;;;;;;;;;;;21.70;99.90;;;;;;5089310;28;20022;-75
2022/10/04 13:25:18;;;;;;;;;;;21.50;99.90;;;;;;5058242;28;19995;-76
2022/10/04 13:27:44;;;;;;;;;;;21.60;99.90;;;;;;5072937;28;19913;-75
2022/10/04 13:30:25;;;;;;;;;;;21.70;99.90;;;;;;5050730;28;19923;-75
2022/10/04 13:32:59;;;;;;;;;;;21.60;99.90;;;;;;5071724;28;20284;-75
2022/10/04 13:35:35;;;;;;;;;;;21.60;99.90;;;;;;5077631;28;19916;-76
2022/10/04 13:38:13;;;;;;;;;;;21.70;99.90;;;;;;5075495;28;20354;-75
2022/10/04 13:40:57;;;;;;;;;;;21.90;99.90;;;;;;5074810;28;19924;-75
2022/10/04 13:43:54;;;;;;;;;;;;;;;;;;;;;
2022/10/04 13:46:28;;;;;;;;;;;21.70;99.90;;;;;;5073803;28;19913;-75
2022/10/04 13:49:12;;;;;;;;;;;21.70;99.90;;;;;;5064521;28;19920;-75
2022/10/04 13:51:42;;;;;;;;;;;21.70;99.90;;;;;;5074162;28;20013;-75
2022/10/04 13:57:28;;;;;;;;;;;21.50;99.90;;;;;;5072285;28;19960;-75
2022/10/04 13:59:54;;;;;;;;;;;21.50;99.90;;;;;;5073045;28;19928;-76
2022/10/04 14:02:28;;;;;;;;;;;21.70;99.90;;;;;;5071787;28;20008;-71
2022/10/04 14:05:09;;;;;;;;;;;21.80;99.90;;;;;;5072935;28;19990;-76
2022/10/04 14:07:54;;;;;;;;;;;21.90;99.90;;;;;;5053740;28;20046;-76
2022/10/04 14:10:38;;;;;;;;;;;22.00;99.90;;;;;;5075353;28;19912;-76
2022/10/04 14:13:23;;;;;;;;;;;22.00;99.90;;;;;;5071549;28;19920;-76
2022/10/04 14:15:59;;;;;;;;;;;21.90;99.90;;;;;;5072826;28;19920;-75
2022/10/04 14:18:43;;;;;;;;;;;22.00;99.90;;;;;;5048125;28;19913;-76
2022/10/04 14:21:30;;;;;;;;;;;22.00;99.90;;;;;;5072857;28;19920;-76
2022/10/04 14:24:14;;;;;;;;;;;21.90;99.90;;;;;;5072061;28;19924;-76
2022/10/04 14:26:46;;;;;;;;;;;21.80;99.90;;;;;;5073034;28;19912;-75
2022/10/04 14:29:27;;;;;;;;;;;21.60;99.90;;;;;;5072024;28;19927;-75
2022/10/04 14:31:59;;;;;;;;;;;21.40;99.90;;;;;;5072541;28;19908;-75
2022/10/04 14:34:40;;;;;;;;;;;21.30;99.90;;;;;;5065290;28;19917;-76
2022/10/04 14:37:06;;;;;;;;;;;21.50;99.90;;;;;;5075620;28;19919;-75
2022/10/04 14:39:37;;;;;;;;;;;21.70;99.90;;;;;;5075678;28;20413;-75
2022/10/04 14:42:13;;;;;;;;;;;21.90;99.90;;;;;;5072870;28;20191;-76
2022/10/04 14:44:44;;;;;;;;;;;22.00;99.90;;;;;;5070592;28;19973;-76
2022/10/04 14:47:12;;;;;;;;;;;22.00;99.90;;;;;;5072591;28;20617;-76
2022/10/04 14:49:59;;;;;;;;;;;21.90;99.90;;;;;;5073226;28;19951;-77
2022/10/04 14:52:43;;;;;;;;;;;21.70;99.90;;;;;;5070157;28;20006;-76
2022/10/04 14:55:27;;;;;;;;;;;21.70;99.90;;;;;;5076233;28;19920;-77
2022/10/04 14:58:05;;;;;;;;;;;21.80;99.90;;;;;;5075746;28;19912;-76
2022/10/04 15:00:53;;;;;;;;;;;21.80;99.90;;;;;;5075862;28;19965;-75
2022/10/04 15:03:31;;;;;;;;;;;21.70;99.90;;;;;;5073631;28;19917;-76
2022/10/04 15:06:01;;;;;;;;;;;21.60;99.90;;;;;;5091013;28;19924;-76
2022/10/04 15:08:50;;;;;;;;;;;21.50;99.90;;;;;;5056991;28;20409;-78
2022/10/04 15:11:18;;;;;;;;;;;21.40;99.90;;;;;;5065038;28;19919;-76
2022/10/04 15:13:54;;;;;;;;;;;21.20;99.90;;;;;;5072936;28;19921;-76
2022/10/04 15:16:38;;;;;;;;;;;21.20;99.90;;;;;;5069777;28;19975;-75
2022/10/04 15:19:24;;;;;;;;;;;21.30;99.90;;;;;;5075792;28;19943;-75
2022/10/04 15:22:05;;;;;;;;;;;21.40;99.90;;;;;;5056679;28;19951;-75
2022/10/04 15:24:37;;;;;;;;;;;21.30;99.90;;;;;;5050862;28;19912;-75
2022/10/04 15:27:22;;;;;;;;;;;21.40;99.90;;;;;;5073480;28;20289;-77
2022/10/04 15:29:57;;;;;;;;;;;21.40;99.90;;;;;;5073707;28;19912;-76
2022/10/04 15:32:43;;;;;;;;;;;21.40;99.90;;;;;;5062464;28;19915;-75
2022/10/04 15:35:20;;;;;;;;;;;21.30;99.90;;;;;;5075693;28;19931;-77
2022/10/04 15:37:55;;;;;;;;;;;21.10;99.90;;;;;;5058674;28;19913;-75
2022/10/04 15:40:27;;;;;;;;;;;21.00;99.90;;;;;;5076475;28;19947;-75
2022/10/04 15:42:53;;;;;;;;;;;20.80;99.90;;;;;;5070726;28;19913;-76
2022/10/04 15:45:24;;;;;;;;;;;20.60;99.90;;;;;;5073197;28;20019;-75
2022/10/04 15:47:52;;;;;;;;;;;20.50;99.90;;;;;;5074923;28;19919;-76
2022/10/04 15:50:20;;;;;;;;;;;20.40;99.90;;;;;;5092071;28;19909;-76
2022/10/04 15:52:48;;;;;;;;;;;20.30;99.90;;;;;;5055733;28;20377;-75
2022/10/04 15:55:29;;;;;;;;;;;20.20;99.90;;;;;;5074788;28;19916;-76
2022/10/04 15:58:15;;;;;;;;;;;20.20;99.90;;;;;;5074582;28;19919;-76
2022/10/04 16:00:55;;;;;;;;;;;20.10;99.90;;;;;;5075298;28;19920;-75
2022/10/04 16:03:37;;;;;;;;;;;20.10;99.90;;;;;;5067704;28;19920;-77
2022/10/04 16:06:19;;;;;;;;;;;20.00;99.90;;;;;;5074829;28;20011;-75
2022/10/04 16:08:46;;;;;;;;;;;19.90;99.90;;;;;;5075176;28;19916;-76
2022/10/04 16:11:15;;;;;;;;;;;19.90;99.90;;;;;;5072671;28;19913;-76
2022/10/04 16:13:47;;;;;;;;;;;19.90;99.90;;;;;;5072926;28;19916;-75
2022/10/04 16:16:24;;;;;;;;;;;19.90;99.90;;;;;;5068644;28;20075;-76
2022/10/04 16:19:09;;;;;;;;;;;19.80;99.90;;;;;;5071593;28;20179;-76
2022/10/04 16:21:43;;;;;;;;;;;19.80;99.90;;;;;;5075578;28;19913;-75
2022/10/04 16:24:18;;;;;;;;;;;19.70;99.90;;;;;;5087391;28;19928;-75
2022/10/04 16:26:50;;;;;;;;;;;19.70;99.90;;;;;;5072145;28;19916;-75
2022/10/04 16:29:28;;;;;;;;;;;19.60;99.90;;;;;;5069638;28;19920;-75
2022/10/04 16:31:53;;;;;;;;;;;19.70;99.90;;;;;;5071426;28;19924;-76
2022/10/04 16:34:44;;;;;;;;;;;19.70;99.90;;;;;;5073479;28;19982;-76
2022/10/04 16:38:05;;;;;;;;;;;19.50;99.90;;;;;;5065862;28;20375;-76
2022/10/04 16:40:54;;;;;;;;;;;19.50;99.90;;;;;;5037873;28;20012;-76
2022/10/04 16:43:27;;;;;;;;;;;19.50;99.90;;;;;;5049138;28;19935;-75
2022/10/04 16:52:35;;;;;;;;;;;19.30;99.90;;;;;;5012813;28;20035;-76
2022/10/04 16:58:40;;;;;;;;;;;19.20;99.90;;;;;;5050842;28;19966;-76
2022/10/04 17:04:44;;;;;;;;;;;19.20;99.90;;;;;;4989867;28;19928;-77
2022/10/04 17:07:11;;;;;;;;;;;19.20;99.90;;;;;;4982213;28;19922;-75
2022/10/04 17:09:55;;;;;;;;;;;19.20;99.90;;;;;;5007912;28;20315;-78
2022/10/04 17:12:44;;;;;;;;;;;19.30;99.90;;;;;;5006417;28;19913;-75
2022/10/04 17:15:49;;;;;;;;;;;;;;;;;;;;;
2022/10/04 17:18:25;;;;;;;;;;;19.40;99.90;;;;;;4995380;28;19932;-75
2022/10/04 17:21:32;;;;;;;;;;;19.30;99.90;;;;;;5072966;28;19960;-74
2022/10/04 17:24:18;;;;;;;;;;;19.30;99.90;;;;;;5010477;28;19969;-75
2022/10/04 17:26:55;;;;;;;;;;;19.30;99.90;;;;;;5031333;28;19919;-75
2022/10/04 17:29:50;;;;;;;;;;;19.30;99.90;;;;;;5074132;28;20361;-76
2022/10/04 18:00:43;;;;;;;;;;;19.00;99.90;;;;;;5003764;28;19920;-80
2022/10/04 18:21:53;;;;;;;;;;;18.60;99.90;;;;;;5004318;28;19918;-79
2022/10/04 18:31:22;;;;;;;;;;;18.60;99.90;;;;;;5005014;28;20355;-83
2022/10/04 18:37:45;;;;;;;;;;;18.50;99.90;;;;;;4891902;29;19922;-79
2022/10/04 18:40:22;;;;;;;;;;;18.50;99.90;;;;;;4931715;29;19911;-79
2022/10/04 18:46:39;;;;;;;;;;;18.40;99.90;;;;;;4933535;29;19922;-79
2022/10/04 18:50:03;;;;;;;;;;;18.30;99.90;;;;;;4967604;28;19914;-79
2022/10/04 18:52:37;;;;;;;;;;;18.30;99.90;;;;;;5002267;28;19920;-78
2022/10/04 19:08:24;;;;;;;;;;;18.10;99.90;;;;;;5075084;28;19924;-80
2022/10/04 19:11:41;;;;;;;;;;;18.00;99.90;;;;;;5040460;28;20377;-79
2022/10/04 19:14:35;;;;;;;;;;;17.90;99.90;;;;;;5041968;28;20153;-80
2022/10/04 19:20:33;;;;;;;;;;;17.80;99.90;;;;;;5086752;28;20285;-81
2022/10/04 19:23:40;;;;;;;;;;;17.80;99.90;;;;;;5079058;28;19912;-77
2022/10/04 19:26:32;;;;;;;;;;;17.80;99.90;;;;;;5033926;28;20441;-80
2022/10/04 19:29:18;;;;;;;;;;;17.80;99.90;;;;;;5081878;28;19981;-79
2022/10/04 19:31:58;;;;;;;;;;;17.70;99.90;;;;;;5075065;28;19924;-80
2022/10/04 19:37:31;;;;;;;;;;;17.70;99.90;;;;;;5069915;28;19920;-78
2022/10/04 19:40:10;;;;;;;;;;;17.70;99.90;;;;;;5068328;28;19915;-81
2022/10/04 19:43:16;;;;;;;;;;;17.70;99.90;;;;;;5085914;28;19916;-82
2022/10/04 19:49:20;;;;;;;;;;;17.30;99.90;;;;;;5073445;28;19912;-78
2022/10/04 19:52:15;;;;;;;;;;;17.20;99.90;;;;;;5086500;28;20317;-81
2022/10/04 19:54:43;;;;;;;;;;;17.30;99.90;;;;;;5082373;28;19913;-79
2022/10/04 20:00:32;;;;;;;;;;;17.30;99.90;;;;;;5091203;28;19916;-78
2022/10/04 20:02:58;;;;;;;;;;;17.20;99.90;;;;;;5067461;28;19908;-79
2022/10/04 20:05:24;;;;;;;;;;;17.30;99.90;;;;;;5089416;28;19976;-81
2022/10/04 20:07:51;;;;;;;;;;;17.20;99.90;;;;;;5090200;28;20397;-80
2022/10/04 20:10:35;;;;;;;;;;;17.20;99.90;;;;;;5089542;28;19908;-79
2022/10/04 20:16:10;;;;;;;;;;;17.20;99.90;;;;;;5071249;28;19912;-78
2022/10/04 20:18:41;;;;;;;;;;;17.20;99.90;;;;;;5088892;28;19909;-81
2022/10/04 20:21:22;;;;;;;;;;;17.10;99.90;;;;;;5105800;28;19908;-80
2022/10/04 20:23:51;;;;;;;;;;;17.00;99.90;;;;;;5089847;28;19915;-79
2022/10/04 20:26:52;;;;;;;;;;;17.00;99.90;;;;;;5089591;28;19908;-80
2022/10/04 20:29:36;;;;;;;;;;;16.90;99.90;;;;;;5090013;28;20330;-81
2022/10/04 20:32:01;;;;;;;;;;;16.80;99.90;;;;;;5080066;28;19908;-78
2022/10/04 20:34:41;;;;;;;;;;;16.70;99.90;;;;;;5076957;28;19913;-78
2022/10/04 20:37:37;;;;;;;;;;;16.70;99.90;;;;;;5089347;28;19984;-78
2022/10/04 20:40:05;;;;;;;;;;;16.70;99.90;;;;;;5087264;28;19927;-79
2022/10/04 20:42:40;;;;;;;;;;;16.70;99.90;;;;;;5090984;28;19915;-79
2022/10/04 20:45:09;;;;;;;;;;;16.70;99.90;;;;;;5088582;28;19934;-78
2022/10/04 20:47:53;;;;;;;;;;;16.70;99.90;;;;;;5088796;28;19919;-79
2022/10/04 20:50:21;;;;;;;;;;;16.60;99.90;;;;;;5069827;28;19964;-78
2022/10/04 20:53:27;;;;;;;;;;;16.60;99.90;;;;;;5092073;28;19904;-77
2022/10/04 20:56:25;;;;;;;;;;;16.60;99.90;;;;;;5086226;28;19939;-78
2022/10/04 20:58:55;;;;;;;;;;;16.60;99.90;;;;;;5070208;28;19909;-78
2022/10/04 21:04:51;;;;;;;;;;;16.60;99.90;;;;;;5055613;28;19908;-78
2022/10/04 21:07:19;;;;;;;;;;;16.50;99.90;;;;;;5067946;28;19921;-79
2022/10/04 21:10:16;;;;;;;;;;;16.40;99.90;;;;;;5068662;28;19937;-77
2022/10/04 21:12:53;;;;;;;;;;;16.40;99.90;;;;;;5081199;28;19910;-80
2022/10/04 21:18:25;;;;;;;;;;;16.40;99.90;;;;;;5026325;28;20174;-79
2022/10/04 21:24:35;;;;;;;;;;;16.30;99.90;;;;;;5005934;28;19972;-79
2022/10/04 21:32:54;;;;;;;;;;;16.30;99.90;;;;;;5067632;28;20009;-81
2022/10/04 21:36:03;;;;;;;;;;;;;;;;;;;;;
2022/10/04 21:41:16;;;;;;;;;;;16.30;99.90;;;;;;5081412;28;20395;-78
2022/10/04 21:43:42;;;;;;;;;;;16.30;99.90;;;;;;5087790;28;19947;-79
2022/10/04 21:46:16;;;;;;;;;;;16.20;99.90;;;;;;5087641;28;19934;-80
2022/10/04 21:52:11;;;;;;;;;;;16.20;99.90;;;;;;5040656;28;19912;-79
2022/10/04 21:55:20;;;;;;;;;;;;;;;;;;;;;
2022/10/04 21:58:04;;;;;;;;;;;16.20;99.90;;;;;;5042397;28;19963;-77
2022/10/04 22:10:15;;;;;;;;;;;16.30;99.90;;;;;;5021490;28;19919;-82
2022/10/04 22:16:53;;;;;;;;;;;16.30;99.90;;;;;;5075527;28;19935;-79
2022/10/04 22:19:02;;;;;;;;;;;16.40;99.90;;;;;;5066491;28;19930;-80
2022/10/04 22:21:31;;;;;;;;;;;16.30;99.90;;;;;;5085658;28;19913;-80
2022/10/04 22:27:06;;;;;;;;;;;16.30;99.90;;;;;;5085828;28;19915;-81
2022/10/04 22:33:56;;;;;;;;;;;;;;;;;;;;;
2022/10/04 22:36:23;;;;;;;;;;;16.50;99.90;;;;;;5019111;28;19913;-79
2022/10/04 22:42:11;;;;;;;;;;;16.60;99.90;;;;;;5041480;28;19913;-78
2022/10/04 22:44:58;;;;;;;;;;;16.70;99.90;;;;;;5079044;28;19923;-78
2022/10/04 22:47:55;;;;;;;;;;;;;;;;;;;;;
2022/10/04 22:50:56;;;;;;;;;;;;;;;;;;;;;
2022/10/04 22:53:43;;;;;;;;;;;;;;;;;;;;;
2022/10/04 22:56:10;;;;;;;;;;;16.70;99.90;;;;;;5086260;28;19936;-80
2022/10/04 22:58:59;;;;;;;;;;;16.70;99.90;;;;;;5086950;28;19940;-79
2022/10/04 23:01:29;;;;;;;;;;;16.80;99.90;;;;;;5086884;28;19916;-78
2022/10/04 23:04:32;;;;;;;;;;;16.80;99.90;;;;;;5086100;28;19915;-78
2022/10/04 23:07:16;;;;;;;;;;;16.80;99.90;;;;;;5070201;28;19919;-79
2022/10/04 23:19:17;;;;;;;;;;;16.90;99.90;;;;;;5003314;28;20033;-79
2022/10/04 23:22:03;;;;;;;;;;;;;;;;;;;;;
2022/10/04 23:24:32;;;;;;;;;;;16.80;99.90;;;;;;5017148;28;19992;-80
2022/10/04 23:27:14;;;;;;;;;;;16.70;99.90;;;;;;5040503;28;20278;-79
2022/10/04 23:29:40;;;;;;;;;;;16.70;99.90;;;;;;5077483;28;19916;-78
2022/10/04 23:32:47;;;;;;;;;;;16.70;99.90;;;;;;5080046;28;19916;-79
2022/10/04 23:35:18;;;;;;;;;;;16.80;99.90;;;;;;5049525;28;20371;-80
2022/10/04 23:37:49;;;;;;;;;;;16.80;99.90;;;;;;5054922;28;19913;-79
2022/10/04 23:40:37;;;;;;;;;;;16.70;99.90;;;;;;5065649;28;19915;-80
2022/10/04 23:43:06;;;;;;;;;;;16.70;99.90;;;;;;5078599;28;19908;-78
2022/10/04 23:45:34;;;;;;;;;;;16.70;99.90;;;;;;5079171;28;19916;-79
2022/10/04 23:48:32;;;;;;;;;;;;;;;;;;;;;
